createdAt,value
2018-04-18T00:00:04.925Z,14.20
2018-04-18T00:02:32.372Z,13.80
2018-04-18T00:04:59.806Z,13.80
2018-04-18T00:07:27.258Z,14.10
2018-04-18T00:09:54.687Z,13.80
2018-04-18T00:12:22.160Z,13.80
2018-04-18T00:14:49.604Z,13.80
2018-04-18T00:17:17.052Z,13.80
2018-04-18T00:19:44.481Z,13.60
2018-04-18T00:22:11.941Z,13.80
2018-04-18T00:24:39.385Z,13.80
2018-04-18T00:27:06.826Z,13.60
2018-04-18T00:29:34.278Z,13.50
2018-04-18T00:32:01.716Z,13.50
2018-04-18T00:34:29.166Z,13.40
2018-04-18T00:36:56.617Z,13.30
2018-04-18T00:39:24.065Z,13.10
2018-04-18T00:41:51.655Z,13.00
2018-04-18T00:44:19.101Z,12.80
2018-04-18T00:46:46.542Z,12.80
2018-04-18T00:49:13.984Z,12.80
2018-04-18T00:51:41.429Z,12.70
2018-04-18T00:54:08.880Z,12.70
2018-04-18T00:56:36.318Z,12.70
2018-04-18T00:59:03.767Z,12.70
2018-04-18T01:01:31.202Z,12.70
2018-04-18T01:03:58.641Z,12.60
2018-04-18T01:06:26.071Z,12.60
2018-04-18T01:08:53.519Z,12.50
2018-04-18T01:11:20.949Z,12.50
2018-04-18T01:13:48.388Z,12.50
2018-04-18T01:16:15.834Z,12.60
2018-04-18T01:18:43.292Z,12.60
2018-04-18T01:21:10.729Z,12.50
2018-04-18T01:23:38.179Z,12.70
2018-04-18T01:26:05.631Z,12.80
2018-04-18T01:28:33.089Z,12.90
2018-04-18T01:31:00.535Z,12.80
2018-04-18T01:33:27.993Z,12.60
2018-04-18T01:35:55.449Z,12.60
2018-04-18T01:38:22.909Z,12.70
2018-04-18T01:40:50.344Z,12.50
2018-04-18T01:43:17.785Z,12.40
2018-04-18T01:45:45.226Z,12.40
2018-04-18T01:48:12.680Z,12.40
2018-04-18T01:50:40.110Z,12.60
2018-04-18T01:53:07.550Z,12.50
2018-04-18T01:55:34.992Z,12.50
2018-04-18T01:58:02.432Z,12.50
2018-04-18T02:00:29.890Z,12.40
2018-04-18T02:02:57.334Z,12.60
2018-04-18T02:05:24.782Z,12.70
2018-04-18T02:07:52.229Z,12.70
2018-04-18T02:10:19.672Z,12.50
2018-04-18T02:12:47.103Z,12.50
2018-04-18T02:15:14.553Z,12.60
2018-04-18T02:17:41.993Z,12.30
2018-04-18T02:20:09.438Z,12.20
2018-04-18T02:22:36.890Z,12.20
2018-04-18T02:25:04.341Z,12.10
2018-04-18T02:27:31.795Z,12.00
2018-04-18T02:29:59.264Z,12.10
2018-04-18T02:32:26.712Z,12.10
2018-04-18T02:34:54.932Z,12.00
2018-04-18T02:37:22.394Z,12.00
2018-04-18T02:39:49.854Z,12.20
2018-04-18T02:42:17.313Z,12.20
2018-04-18T02:44:44.758Z,12.00
2018-04-18T02:47:12.220Z,12.00
2018-04-18T02:49:39.672Z,12.00
2018-04-18T02:52:07.892Z,11.80
2018-04-18T02:54:35.336Z,11.80
2018-04-18T02:57:02.791Z,12.00
2018-04-18T02:59:30.260Z,12.00
2018-04-18T03:01:57.699Z,11.90
2018-04-18T03:04:25.929Z,11.80
2018-04-18T03:06:53.368Z,11.80
2018-04-18T03:09:20.847Z,11.80
2018-04-18T03:11:48.314Z,12.00
2018-04-18T03:14:15.770Z,11.80
2018-04-18T03:16:43.237Z,11.60
2018-04-18T03:19:10.700Z,11.70
2018-04-18T03:21:38.159Z,11.70
2018-04-18T03:24:06.417Z,11.50
2018-04-18T03:26:33.915Z,11.60
2018-04-18T03:29:01.361Z,11.50
2018-04-18T03:31:28.813Z,11.60
2018-04-18T03:33:56.248Z,11.40
2018-04-18T03:36:23.696Z,11.30
2018-04-18T03:38:51.138Z,11.20
2018-04-18T03:41:18.600Z,11.40
2018-04-18T03:43:46.036Z,11.20
2018-04-18T03:46:13.501Z,11.00
2018-04-18T03:48:40.966Z,10.80
2018-04-18T03:51:08.424Z,10.90
2018-04-18T03:53:35.880Z,10.70
2018-04-18T03:56:03.350Z,10.70
2018-04-18T03:58:30.815Z,10.70
2018-04-18T04:00:58.267Z,10.70
2018-04-18T04:03:25.709Z,10.80
2018-04-18T04:05:53.150Z,10.70
2018-04-18T04:08:21.359Z,10.70
2018-04-18T04:10:48.815Z,10.70
2018-04-18T04:13:16.275Z,10.70
2018-04-18T04:15:43.747Z,10.80
2018-04-18T04:18:22.918Z,10.70
2018-04-18T04:21:02.251Z,10.60
2018-04-18T04:23:41.600Z,10.50
2018-04-18T04:26:09.821Z,10.50
2018-04-18T04:28:37.255Z,10.50
2018-04-18T04:31:04.712Z,10.60
2018-04-18T04:33:32.923Z,10.40
2018-04-18T04:36:00.377Z,10.30
2018-04-18T04:38:27.828Z,10.60
2018-04-18T04:40:55.292Z,10.50
2018-04-18T04:43:22.746Z,10.50
2018-04-18T04:45:50.981Z,10.30
2018-04-18T04:48:18.448Z,10.30
2018-04-18T04:50:45.909Z,10.40
2018-04-18T04:53:13.992Z,10.30
2018-04-18T04:55:41.454Z,10.40
2018-04-18T04:58:08.910Z,10.30
2018-04-18T05:00:36.365Z,10.50
2018-04-18T05:03:03.820Z,10.40
2018-04-18T05:05:31.265Z,10.70
2018-04-18T05:07:58.736Z,10.50
2018-04-18T05:10:26.202Z,10.60
2018-04-18T05:12:53.654Z,10.50
2018-04-18T05:15:21.104Z,10.50
2018-04-18T05:17:48.570Z,10.50
2018-04-18T05:20:16.020Z,10.60
2018-04-18T05:22:43.508Z,10.70
2018-04-18T05:25:10.982Z,10.70
2018-04-18T05:27:38.437Z,10.70
2018-04-18T05:30:05.899Z,10.70
2018-04-18T05:32:33.350Z,10.90
2018-04-18T05:35:00.815Z,11.00
2018-04-18T05:37:28.278Z,11.00
2018-04-18T05:39:55.735Z,10.90
2018-04-18T05:42:23.198Z,11.00
2018-04-18T05:44:50.673Z,11.10
2018-04-18T05:47:18.148Z,11.10
2018-04-18T05:49:45.604Z,11.10
2018-04-18T05:52:13.057Z,11.10
2018-04-18T05:54:40.536Z,11.30
2018-04-18T05:57:07.996Z,11.30
2018-04-18T05:59:36.211Z,11.30
2018-04-18T06:02:03.652Z,11.30
2018-04-18T06:04:31.101Z,11.50
2018-04-18T06:06:58.555Z,11.40
2018-04-18T06:09:26.013Z,11.40
2018-04-18T06:11:53.462Z,11.20
2018-04-18T06:14:20.917Z,11.20
2018-04-18T06:16:48.360Z,11.30
2018-04-18T06:19:16.655Z,11.50
2018-04-18T06:21:44.052Z,11.40
2018-04-18T06:24:11.499Z,11.60
2018-04-18T06:26:38.962Z,11.80
2018-04-18T06:29:06.427Z,11.90
2018-04-18T06:31:33.876Z,11.90
2018-04-18T06:34:01.345Z,12.00
2018-04-18T06:36:28.787Z,12.00
2018-04-18T06:38:56.244Z,12.30
2018-04-18T06:41:24.475Z,12.40
2018-04-18T06:43:51.930Z,12.40
2018-04-18T06:46:19.398Z,12.50
2018-04-18T06:48:46.858Z,12.60
2018-04-18T06:51:14.340Z,12.70
2018-04-18T06:53:41.777Z,12.70
2018-04-18T06:56:09.220Z,12.70
2018-04-18T06:58:36.678Z,12.80
2018-04-18T07:01:04.145Z,12.90
2018-04-18T07:03:31.638Z,13.00
2018-04-18T07:05:59.094Z,13.10
2018-04-18T07:08:26.540Z,13.20
2018-04-18T07:10:54.006Z,13.30
2018-04-18T07:13:21.454Z,13.30
2018-04-18T07:15:48.943Z,13.40
2018-04-18T07:18:16.389Z,13.50
2018-04-18T07:20:43.851Z,13.60
2018-04-18T07:23:11.317Z,13.70
2018-04-18T07:25:38.765Z,13.80
2018-04-18T07:28:06.209Z,13.90
2018-04-18T07:30:34.451Z,14.00
2018-04-18T07:33:01.900Z,14.00
2018-04-18T07:35:29.360Z,14.10
2018-04-18T07:37:56.828Z,14.20
2018-04-18T07:40:24.280Z,14.30
2018-04-18T07:42:51.742Z,14.40
2018-04-18T07:45:19.201Z,14.50
2018-04-18T07:47:46.675Z,14.60
2018-04-18T07:50:14.126Z,14.80
2018-04-18T07:52:41.572Z,15.10
2018-04-18T07:55:09.025Z,15.20
2018-04-18T07:57:36.487Z,15.20
2018-04-18T08:00:03.936Z,15.20
2018-04-18T08:02:31.389Z,15.30
2018-04-18T08:04:59.625Z,15.40
2018-04-18T08:07:27.090Z,15.40
2018-04-18T08:09:54.547Z,15.40
2018-04-18T08:12:21.996Z,15.70
2018-04-18T08:14:49.457Z,16.00
2018-04-18T08:17:16.903Z,16.10
2018-04-18T08:19:44.379Z,16.30
2018-04-18T08:22:11.816Z,16.20
2018-04-18T08:24:40.037Z,16.20
2018-04-18T08:27:07.474Z,16.20
2018-04-18T08:29:34.921Z,16.30
2018-04-18T08:32:02.385Z,16.30
2018-04-18T08:34:29.868Z,16.30
2018-04-18T08:36:57.338Z,16.40
2018-04-18T08:39:24.788Z,16.50
2018-04-18T08:41:52.239Z,16.50
2018-04-18T08:44:19.695Z,16.60
2018-04-18T08:46:47.134Z,16.70
2018-04-18T08:49:15.351Z,16.90
2018-04-18T08:51:43.653Z,16.90
2018-04-18T08:54:11.113Z,16.90
2018-04-18T08:56:38.569Z,17.10
2018-04-18T08:59:06.022Z,17.10
2018-04-18T09:01:33.488Z,17.50
2018-04-18T09:04:00.949Z,17.30
2018-04-18T09:06:28.426Z,17.20
2018-04-18T09:08:55.872Z,17.20
2018-04-18T09:11:23.348Z,17.40
2018-04-18T09:13:50.793Z,17.40
2018-04-18T09:16:19.026Z,17.80
2018-04-18T09:18:46.464Z,17.80
2018-04-18T09:21:13.925Z,17.90
2018-04-18T09:23:41.359Z,18.00
2018-04-18T09:26:08.800Z,18.00
2018-04-18T09:28:36.280Z,18.00
2018-04-18T09:31:03.725Z,18.10
2018-04-18T09:33:31.937Z,18.10
2018-04-18T09:35:59.390Z,18.10
2018-04-18T09:38:26.855Z,18.20
2018-04-18T09:40:54.290Z,18.30
2018-04-18T09:43:22.520Z,18.30
2018-04-18T09:45:49.974Z,18.30
2018-04-18T09:48:17.445Z,18.60
2018-04-18T09:50:44.893Z,18.80
2018-04-18T09:53:12.348Z,19.00
2018-04-18T09:55:39.806Z,19.00
2018-04-18T09:58:07.249Z,19.00
2018-04-18T10:00:40.237Z,19.10
2018-04-18T10:03:07.701Z,19.20
2018-04-18T10:05:35.909Z,19.40
2018-04-18T10:08:03.373Z,19.60
2018-04-18T10:10:30.823Z,19.60
2018-04-18T10:12:58.265Z,19.90
2018-04-18T10:15:25.735Z,19.80
2018-04-18T10:17:53.194Z,19.90
2018-04-18T10:20:21.422Z,20.10
2018-04-18T10:22:48.899Z,20.10
2018-04-18T10:25:16.335Z,20.20
2018-04-18T10:27:43.827Z,20.30
2018-04-18T10:30:11.277Z,20.40
2018-04-18T10:32:38.737Z,20.60
2018-04-18T10:35:06.196Z,20.50
2018-04-18T10:37:33.661Z,20.60
2018-04-18T10:40:01.108Z,20.80
2018-04-18T10:42:28.540Z,21.00
2018-04-18T10:44:55.992Z,21.10
2018-04-18T10:47:23.424Z,21.30
2018-04-18T10:49:50.881Z,21.40
2018-04-18T10:52:18.331Z,21.40
2018-04-18T10:54:45.782Z,22.20
2018-04-18T10:57:13.243Z,21.90
2018-04-18T10:59:40.698Z,21.90
2018-04-18T11:02:08.150Z,21.90
2018-04-18T11:04:35.599Z,22.00
2018-04-18T11:07:03.034Z,22.10
2018-04-18T11:09:31.257Z,22.60
2018-04-18T11:11:58.711Z,22.50
2018-04-18T11:14:26.177Z,22.60
2018-04-18T11:16:55.595Z,22.80
2018-04-18T11:19:23.045Z,22.70
2018-04-18T11:21:50.504Z,22.80
2018-04-18T11:24:17.971Z,23.00
2018-04-18T11:26:45.432Z,23.00
2018-04-18T11:29:12.897Z,22.80
2018-04-18T11:31:40.401Z,22.90
2018-04-18T11:34:07.868Z,23.00
2018-04-18T11:36:35.362Z,23.20
2018-04-18T11:39:03.600Z,23.50
2018-04-18T11:41:31.048Z,23.50
2018-04-18T11:43:58.517Z,23.70
2018-04-18T11:46:25.988Z,23.80
2018-04-18T11:48:53.448Z,23.70
2018-04-18T11:51:20.912Z,23.70
2018-04-18T11:53:48.361Z,23.90
2018-04-18T12:02:01.956Z,24.10
2018-04-18T12:04:30.198Z,24.00
2018-04-18T12:06:57.635Z,24.00
2018-04-18T12:09:25.108Z,24.10
2018-04-18T12:11:52.569Z,24.00
2018-04-18T12:14:19.996Z,24.30
2018-04-18T12:16:48.206Z,24.70
2018-04-18T12:19:16.417Z,24.90
2018-04-18T12:21:43.892Z,24.90
2018-04-18T12:24:11.371Z,24.50
2018-04-18T12:26:38.874Z,24.80
2018-04-18T12:29:07.157Z,24.70
2018-04-18T12:31:34.613Z,24.70
2018-04-18T12:34:02.824Z,25.00
2018-04-18T12:36:30.279Z,24.90
2018-04-18T12:38:57.739Z,24.60
2018-04-18T12:41:26.360Z,24.50
2018-04-18T12:43:53.805Z,24.70
2018-04-18T12:46:21.265Z,25.20
2018-04-18T12:48:48.756Z,25.30
2018-04-18T12:51:16.243Z,25.50
2018-04-18T12:53:43.685Z,25.20
2018-04-18T12:56:11.923Z,25.70
2018-04-18T12:58:39.375Z,25.70
2018-04-18T13:01:06.844Z,25.90
2018-04-18T13:03:35.122Z,26.00
2018-04-18T13:06:02.690Z,25.90
2018-04-18T13:08:30.151Z,25.90
2018-04-18T13:10:57.625Z,25.80
2018-04-18T13:13:25.073Z,25.90
2018-04-18T13:15:52.529Z,26.00
2018-04-18T13:18:20.019Z,25.80
2018-04-18T13:20:47.433Z,26.00
2018-04-18T13:23:14.909Z,25.80
2018-04-18T13:25:42.380Z,25.90
2018-04-18T13:28:09.839Z,26.20
2018-04-18T13:30:37.282Z,26.40
2018-04-18T13:33:04.767Z,26.60
2018-04-18T13:35:32.215Z,26.40
2018-04-18T13:37:59.785Z,26.60
2018-04-18T13:40:27.219Z,26.50
2018-04-18T13:42:55.472Z,26.30
2018-04-18T13:45:24.631Z,26.30
2018-04-18T13:47:52.112Z,26.20
2018-04-18T13:50:19.572Z,26.50
2018-04-18T13:52:47.035Z,26.60
2018-04-18T13:55:14.492Z,26.40
2018-04-18T13:57:41.962Z,26.50
2018-04-18T14:00:09.415Z,26.70
2018-04-18T14:02:36.883Z,26.40
2018-04-18T14:05:04.327Z,26.70
2018-04-18T14:07:31.788Z,26.80
2018-04-18T14:09:59.213Z,26.60
2018-04-18T14:12:27.432Z,26.60
2018-04-18T14:14:55.649Z,26.80
2018-04-18T14:17:23.109Z,26.80
2018-04-18T14:19:50.557Z,26.80
2018-04-18T14:22:18.003Z,26.70
2018-04-18T14:24:45.447Z,26.70
2018-04-18T14:27:12.894Z,26.70
2018-04-18T14:29:41.099Z,26.70
2018-04-18T14:32:08.572Z,26.70
2018-04-18T14:34:35.994Z,26.90
2018-04-18T14:37:04.213Z,26.90
2018-04-18T14:39:31.675Z,26.90
2018-04-18T14:41:59.110Z,26.60
2018-04-18T14:44:26.560Z,26.50
2018-04-18T14:46:54.771Z,26.60
2018-04-18T14:49:22.977Z,26.80
2018-04-18T14:51:50.443Z,26.80
2018-04-18T14:54:17.893Z,26.80
2018-04-18T14:56:45.325Z,26.60
2018-04-18T14:59:12.777Z,26.60
2018-04-18T15:01:40.229Z,26.70
2018-04-18T15:04:08.457Z,26.60
2018-04-18T15:06:35.898Z,26.60
2018-04-18T15:09:03.365Z,26.70
2018-04-18T15:11:30.802Z,26.70
2018-04-18T15:13:58.244Z,26.80
2018-04-18T15:16:26.475Z,27.10
2018-04-18T15:18:53.907Z,27.10
2018-04-18T15:21:21.349Z,27.00
2018-04-18T15:23:49.569Z,27.30
2018-04-18T15:26:17.032Z,27.30
2018-04-18T15:28:44.483Z,27.10
2018-04-18T15:31:11.957Z,27.10
2018-04-18T15:33:41.069Z,27.00
2018-04-18T15:36:08.668Z,27.10
2018-04-18T15:38:36.131Z,27.00
2018-04-18T15:41:03.581Z,27.00
2018-04-18T15:43:31.027Z,27.00
2018-04-18T15:45:58.489Z,26.80
2018-04-18T15:48:25.937Z,26.70
2018-04-18T15:50:53.951Z,26.90
2018-04-18T15:53:21.417Z,26.90
2018-04-18T15:55:48.868Z,26.80
2018-04-18T15:58:16.320Z,26.80
2018-04-18T16:00:43.770Z,27.00
2018-04-18T16:03:11.212Z,27.00
2018-04-18T16:05:38.681Z,26.90
2018-04-18T16:08:06.152Z,27.20
2018-04-18T16:10:33.604Z,27.00
2018-04-18T16:13:01.069Z,26.60
2018-04-18T16:15:28.536Z,26.50
2018-04-18T16:17:55.966Z,26.60
2018-04-18T16:20:24.288Z,26.40
2018-04-18T16:22:51.716Z,26.40
2018-04-18T16:25:19.196Z,26.30
2018-04-18T16:27:46.634Z,26.20
2018-04-18T16:30:26.659Z,26.40
2018-04-18T16:32:54.128Z,26.30
2018-04-18T16:35:22.372Z,26.20
2018-04-18T16:37:49.818Z,26.10
2018-04-18T16:40:17.280Z,26.20
2018-04-18T16:42:44.749Z,26.10
2018-04-18T16:45:12.206Z,26.00
2018-04-18T16:47:39.664Z,26.10
2018-04-18T16:50:07.876Z,25.80
2018-04-18T16:52:35.322Z,25.70
2018-04-18T16:55:02.760Z,25.80
2018-04-18T16:57:30.225Z,25.80
2018-04-18T16:59:57.678Z,25.70
2018-04-18T17:02:25.132Z,25.70
2018-04-18T17:04:52.575Z,25.50
2018-04-18T17:07:20.055Z,25.60
2018-04-18T17:09:48.277Z,25.60
2018-04-18T17:12:15.744Z,25.50
2018-04-18T17:14:43.520Z,25.40
2018-04-18T17:17:10.969Z,25.30
2018-04-18T17:19:38.435Z,25.10
2018-04-18T17:22:05.873Z,25.10
2018-04-18T17:24:33.314Z,25.00
2018-04-18T17:27:00.835Z,25.00
2018-04-18T17:29:28.238Z,24.90
2018-04-18T17:31:56.509Z,24.70
2018-04-18T17:34:24.725Z,24.60
2018-04-18T17:36:52.178Z,24.60
2018-04-18T17:39:19.620Z,24.60
2018-04-18T17:41:47.849Z,24.30
2018-04-18T17:44:15.308Z,24.30
2018-04-18T17:46:42.775Z,24.20
2018-04-18T17:49:10.225Z,24.10
2018-04-18T17:51:37.660Z,23.80
2018-04-18T17:54:05.121Z,23.80
2018-04-18T17:56:32.558Z,23.80
2018-04-18T17:59:00.012Z,23.70
2018-04-18T18:01:27.461Z,23.70
2018-04-18T18:03:54.907Z,23.50
2018-04-18T18:06:22.399Z,23.30
2018-04-18T18:08:49.792Z,23.20
2018-04-18T18:11:17.236Z,23.30
2018-04-18T18:13:45.461Z,23.10
2018-04-18T18:16:12.909Z,23.10
2018-04-18T18:18:40.360Z,22.90
2018-04-18T18:21:08.583Z,22.70
2018-04-18T18:23:36.061Z,22.70
2018-04-18T18:26:03.504Z,22.60
2018-04-18T18:28:30.972Z,22.70
2018-04-18T18:30:58.415Z,22.40
2018-04-18T18:33:25.892Z,22.40
2018-04-18T18:38:43.843Z,22.10
2018-04-18T18:41:11.280Z,22.10
2018-04-18T18:43:38.738Z,22.00
2018-04-18T18:46:06.167Z,21.90
2018-04-18T18:48:34.388Z,21.70
2018-04-18T18:51:01.848Z,21.70
2018-04-18T18:53:29.301Z,21.60
2018-04-18T18:55:56.736Z,21.50
2018-04-18T18:58:24.943Z,21.50
2018-04-18T19:00:52.401Z,21.50
2018-04-18T19:03:19.845Z,21.30
2018-04-18T19:05:48.059Z,21.30
2018-04-18T19:08:15.560Z,21.30
2018-04-18T19:10:42.952Z,21.60
2018-04-18T19:13:11.156Z,21.10
2018-04-18T19:15:38.655Z,21.10
2018-04-18T19:18:06.036Z,20.90
2018-04-18T19:20:34.253Z,20.90
2018-04-18T19:23:01.692Z,20.90
2018-04-18T19:25:29.917Z,21.00
2018-04-18T19:27:57.347Z,21.00
2018-04-18T19:30:24.802Z,20.80
2018-04-18T19:32:53.098Z,20.80
2018-04-18T19:35:20.537Z,20.80
2018-04-18T19:37:47.983Z,20.80
2018-04-18T19:40:15.453Z,20.80
2018-04-18T19:42:42.904Z,20.70
2018-04-18T19:45:10.353Z,20.60
2018-04-18T19:47:37.827Z,20.60
2018-04-18T19:50:05.275Z,20.50
2018-04-18T19:52:32.725Z,20.50
2018-04-18T19:55:00.177Z,20.40
2018-04-18T19:57:27.621Z,20.30
2018-04-18T19:59:55.065Z,20.30
2018-04-18T20:02:22.509Z,20.30
2018-04-18T20:04:49.970Z,20.30
2018-04-18T20:07:17.429Z,20.30
2018-04-18T20:09:44.888Z,20.10
2018-04-18T20:12:12.334Z,20.00
2018-04-18T20:14:39.792Z,20.10
2018-04-18T20:17:07.253Z,20.10
2018-04-18T20:19:34.688Z,20.20
2018-04-18T20:22:02.161Z,20.10
2018-04-18T20:24:29.588Z,19.70
2018-04-18T20:26:57.042Z,19.70
2018-04-18T20:29:25.241Z,19.40
2018-04-18T20:31:52.698Z,19.40
2018-04-18T20:34:20.154Z,19.50
2018-04-18T20:36:51.119Z,19.20
2018-04-18T20:39:18.559Z,19.20
2018-04-18T20:41:53.843Z,19.30
2018-04-18T20:44:21.272Z,19.20
2018-04-18T20:46:48.719Z,19.30
2018-04-18T20:49:16.943Z,18.90
2018-04-18T20:51:44.391Z,18.90
2018-04-18T20:54:11.832Z,19.10
2018-04-18T20:56:39.281Z,19.10
2018-04-18T20:59:07.498Z,19.00
2018-04-18T21:01:34.945Z,19.00
2018-04-18T21:04:02.380Z,18.60
2018-04-18T21:06:30.590Z,18.70
2018-04-18T21:08:58.039Z,18.60
2018-04-18T21:11:25.486Z,18.80
2018-04-18T21:13:53.690Z,18.50
2018-04-18T21:16:21.133Z,18.50
2018-04-18T21:18:49.334Z,18.00
2018-04-18T21:21:16.784Z,18.00
2018-04-18T21:23:44.224Z,18.00
2018-04-18T21:26:12.447Z,18.20
2018-04-18T21:28:39.884Z,18.20
2018-04-18T21:31:07.340Z,18.00
2018-04-18T21:33:35.567Z,18.00
2018-04-18T21:36:03.019Z,18.00
2018-04-18T21:38:30.521Z,18.00
2018-04-18T21:40:57.913Z,17.80
2018-04-18T21:43:25.369Z,17.70
2018-04-18T21:45:53.592Z,17.50
2018-04-18T21:48:21.039Z,17.50
2018-04-18T21:50:48.497Z,17.60
2018-04-18T21:53:15.936Z,17.40
2018-04-18T21:55:43.387Z,17.50
2018-04-18T21:58:11.590Z,17.20
2018-04-18T22:00:39.060Z,17.20
2018-04-18T22:03:06.509Z,17.40
2018-04-18T22:05:33.961Z,17.50
2018-04-18T22:08:02.173Z,17.40
2018-04-18T22:10:29.609Z,17.40
2018-04-18T22:12:57.063Z,17.20
2018-04-18T22:15:25.267Z,17.10
2018-04-18T22:17:52.734Z,17.10
2018-04-18T22:20:20.168Z,17.10
2018-04-18T22:22:48.399Z,16.90
2018-04-18T22:25:15.837Z,16.90
2018-04-18T22:27:43.288Z,16.90
2018-04-18T22:30:10.729Z,16.80
2018-04-18T22:32:38.933Z,16.70
2018-04-18T22:35:06.375Z,16.70
2018-04-18T22:37:34.580Z,16.50
2018-04-18T22:40:02.016Z,16.50
2018-04-18T22:42:30.233Z,16.60
2018-04-18T22:44:57.683Z,16.60
2018-04-18T22:47:25.126Z,16.60
2018-04-18T22:49:52.563Z,16.60
2018-04-18T22:52:20.786Z,16.70
2018-04-18T22:54:48.229Z,16.60
2018-04-18T22:57:15.680Z,16.80
2018-04-18T22:59:43.895Z,16.80
2018-04-18T23:02:12.103Z,16.80
2018-04-18T23:04:39.552Z,16.80
2018-04-18T23:07:06.993Z,16.80
2018-04-18T23:09:34.473Z,16.90
2018-04-18T23:12:01.918Z,17.10
2018-04-18T23:14:29.364Z,17.30
2018-04-18T23:16:56.804Z,17.30
2018-04-18T23:19:25.037Z,17.20
2018-04-18T23:21:52.479Z,17.20
2018-04-18T23:24:19.936Z,17.30
2018-04-18T23:26:48.137Z,17.50
2018-04-18T23:29:15.589Z,17.40
2018-04-18T23:31:43.028Z,17.50
2018-04-18T23:34:10.522Z,17.50
2018-04-18T23:36:37.927Z,17.40
2018-04-18T23:39:05.380Z,17.60
2018-04-18T23:41:32.821Z,17.70
2018-04-18T23:44:00.254Z,17.80
2018-04-18T23:46:27.696Z,17.90
2018-04-18T23:48:55.146Z,17.90
2018-04-18T23:51:22.576Z,17.90
2018-04-18T23:53:50.016Z,17.90
2018-04-18T23:56:17.452Z,17.90
2018-04-18T23:58:44.941Z,17.80
